• Join FlightAware (Why Join?)
  • Login
  • US Flag 
04:08AM EDT


 

Airport Tracker/Info


-or-


 

Live Flight TrackerFlight Track Log ✈ UAL109 ✈ 06-Jul-2013 ✈ EGPH / EDI - KEWR

Flight Track Log - Related Links

Times and Time Zones

All times are in EDT time to prevent confusion due to time zone crossing. See the UAL109 flight status page for this flight to view local times or setup timezone preferences in your user account.

Time Position Orientation Groundspeed Altitude Reporting Facility
EDT Latitude Longitude Course Direction KTS MPH feet Rate Location/Type
02:06PM 56.5130 -9.0433 282° West  Level Estimated
02:07PM 56.5272 -9.2350 278° West  Level Estimated
02:08PM 56.5412 -9.4268 278° West  Level Estimated
02:09PM 56.5549 -9.6188 277° West  Level Estimated
02:10PM 56.5682 -9.8109 277° West  Level Estimated
02:11PM 56.5813 -10.0031 277° West  Level Estimated
02:12PM 56.5941 -10.1955 277° West  Level Estimated
02:13PM 56.6066 -10.3880 277° West  Level Estimated
02:14PM 56.6188 -10.5806 277° West  Level Estimated
02:15PM 56.6307 -10.7734 276° West  Level Estimated
02:16PM 56.6423 -10.9663 276° West  Level Estimated
02:17PM 56.6535 -11.1593 276° West  Level Estimated
02:18PM 56.6645 -11.3524 276° West  Level Estimated
02:19PM 56.6752 -11.5456 276° West  Level Estimated
02:20PM 56.6856 -11.7389 276° West  Level Estimated
02:21PM 56.6957 -11.9323 276° West  Level Estimated
02:22PM 56.7055 -12.1258 275° West  Level Estimated
02:23PM 56.7150 -12.3195 275° West  Level Estimated
02:24PM 56.7242 -12.5132 275° West  Level Estimated
02:25PM 56.7331 -12.7070 275° West  Level Estimated
02:26PM 56.7417 -12.9009 275° West  Level Estimated
02:27PM 56.7500 -13.0949 275° West  Level Estimated
02:28PM 56.7580 -13.2890 274° West  Level Estimated
02:29PM 56.7657 -13.4831 274° West  Level Estimated
02:30PM 56.7731 -13.6774 274° West  Level Estimated
02:31PM 56.7802 -13.8717 274° West  Level Estimated
02:32PM 56.7869 -14.0660 274° West  Level Estimated
02:33PM 56.7934 -14.2605 274° West  Level Estimated
02:34PM 56.7996 -14.4550 273° West  Level Estimated
02:35PM 56.8055 -14.6496 273° West  Level Estimated
02:36PM 56.8110 -14.8442 273° West  Level Estimated
02:37PM 56.8163 -15.0389 273° West  Level Estimated
02:38PM 56.8213 -15.2337 273° West  Level Estimated
02:39PM 56.8259 -15.4285 273° West  Level Estimated
02:40PM 56.8303 -15.6233 272° West  Level Estimated
02:41PM 56.8344 -15.8182 272° West  Level Estimated
02:42PM 56.8381 -16.0131 272° West  Level Estimated
02:43PM 56.8416 -16.2081 272° West  Level Estimated
02:44PM 56.8447 -16.4031 272° West  Level Estimated
02:45PM 56.8475 -16.5981 272° West  Level Estimated
02:46PM 56.8501 -16.7932 271° West  Level Estimated
02:47PM 56.8523 -16.9883 271° West  Level Estimated
02:48PM 56.8543 -17.1834 271° West  Level Estimated
02:49PM 56.8559 -17.3785 271° West  Level Estimated
02:50PM 56.8572 -17.5737 271° West  Level Estimated
02:51PM 56.8582 -17.7688 271° West  Level Estimated
02:52PM 56.8589 -17.9640 270° West  Level Estimated
02:53PM 56.8593 -18.1591 270° West  Level Estimated
02:54PM 56.8594 -18.3543 270° West  Level Estimated
02:55PM 56.8592 -18.5495 270° West  Level Estimated
02:56PM 56.8587 -18.7447 270° West  Level Estimated
02:57PM 56.8579 -18.9398 270° West  Level Estimated
02:58PM 56.8568 -19.1350 269° West  Level Estimated
02:59PM 56.8554 -19.3301 269° West  Level Estimated
03:00PM 56.8537 -19.5252 269° West  Level Estimated
03:01PM 56.8517 -19.7203 269° West  Level Estimated
03:02PM 56.8493 -19.9154 269° West  Level Estimated
03:03PM 56.8467 -20.1105 269° West  Level Estimated
03:04PM 56.8438 -20.3055 269° West  Level Estimated
03:05PM 56.8405 -20.5005 268° West  Level Estimated
03:06PM 56.8370 -20.6954 268° West  Level Estimated
03:07PM 56.8331 -20.8904 268° West  Level Estimated
03:08PM 56.8290 -21.0852 268° West  Level Estimated
03:09PM 56.8245 -21.2801 268° West  Level Estimated
03:10PM 56.8197 -21.4748 268° West  Level Estimated
03:11PM 56.8147 -21.6696 267° West  Level Estimated
03:12PM 56.8093 -21.8643 267° West  Level Estimated
03:13PM 56.8036 -22.0589 267° West  Level Estimated
03:14PM 56.7977 -22.2534 267° West  Level Estimated
03:15PM 56.7914 -22.4479 267° West  Level Estimated
03:16PM 56.7848 -22.6424 267° West  Level Estimated
03:17PM 56.7779 -22.8367 266° West  Level Estimated
03:18PM 56.7708 -23.0310 266° West  Level Estimated
03:19PM 56.7633 -23.2252 266° West  Level Estimated
03:20PM 56.7555 -23.4193 266° West  Level Estimated
03:21PM 56.7474 -23.6134 266° West  Level Estimated
03:22PM 56.7390 -23.8074 266° West  Level Estimated
03:23PM 56.7303 -24.0012 265° West  Level Estimated
03:24PM 56.7213 -24.1950 265° West  Level Estimated
03:25PM 56.7121 -24.3887 265° West  Level Estimated
03:26PM 56.7025 -24.5823 265° West  Level Estimated
03:27PM 56.6926 -24.7758 265° West  Level Estimated
03:28PM 56.6824 -24.9692 265° West  Level Estimated
03:29PM 56.6719 -25.1625 264° West  Level Estimated
03:30PM 56.6611 -25.3556 264° West  Level Estimated
03:31PM 56.6500 -25.5487 264° West  Level Estimated
03:32PM 56.6386 -25.7417 264° West  Level Estimated
03:33PM 56.6269 -25.9345 264° West  Level Estimated
03:34PM 56.6150 -26.1272 264° West  Level Estimated
03:35PM 56.6027 -26.3198 263° West  Level Estimated
03:36PM 56.5901 -26.5123 263° West  Level Estimated
03:37PM 56.5772 -26.7046 263° West  Level Estimated
03:38PM 56.5641 -26.8968 263° West  Level Estimated
03:39PM 56.5506 -27.0888 263° West  Level Estimated
03:40PM 56.5368 -27.2808 263° West  Level Estimated
03:41PM 56.5228 -27.4725 263° West  Level Estimated
03:42PM 56.5084 -27.6642 262° West  Level Estimated
03:43PM 56.4938 -27.8557 262° West  Level Estimated
03:44PM 56.4788 -28.0470 262° West  Level Estimated
03:45PM 56.4636 -28.2382 262° West  Level Estimated
03:46PM 56.4481 -28.4292 262° West  Level Estimated
03:47PM 56.4322 -28.6201 262° West  Level Estimated
03:48PM 56.4161 -28.8108 261° West  Level Estimated
03:49PM 56.3997 -29.0014 261° West  Level Estimated
03:50PM 56.3830 -29.1918 261° West  Level Estimated
03:51PM 56.3660 -29.3820 261° West  Level Estimated
03:52PM 56.3487 -29.5721 261° West  Level Estimated
03:53PM 56.3312 -29.7619 261° West  Level Estimated
03:54PM 56.3133 -29.9516 260° West  Level Estimated
03:55PM 56.2952 -30.1412 260° West  Level Estimated
03:56PM 56.2767 -30.3305 260° West  Level Estimated
03:57PM 56.2580 -30.5197 260° West  Level Estimated
03:58PM 56.2390 -30.7086 260° West  Level Estimated
03:59PM 56.2197 -30.8974 260° West  Level Estimated
04:00PM 56.2001 -31.0860 259° West  Level Estimated
04:01PM 56.1802 -31.2744 259° West  Level Estimated
04:02PM 56.1600 -31.4626 259° West  Level Estimated
04:03PM 56.1396 -31.6506 259° West  Level Estimated
04:04PM 56.1188 -31.8384 259° West  Level Estimated
04:05PM 56.0978 -32.0260 259° West  Level Estimated
04:06PM 56.0765 -32.2134 259° West  Level Estimated
04:07PM 56.0549 -32.4006 258° West  Level Estimated
04:08PM 56.0331 -32.5875 258° West  Level Estimated
04:09PM 56.0109 -32.7743 258° West  Level Estimated
04:10PM 55.9885 -32.9608 258° West  Level Estimated
04:11PM 55.9657 -33.1472 258° West  Level Estimated
04:12PM 55.9427 -33.3333 258° West  Level Estimated
04:13PM 55.9195 -33.5191 257° West  Level Estimated
04:14PM 55.8959 -33.7048 257° West  Level Estimated
04:15PM 55.8721 -33.8902 257° West  Level Estimated
04:16PM 55.8479 -34.0754 257° West  Level Estimated
04:17PM 55.8236 -34.2604 257° West  Level Estimated
04:18PM 55.7989 -34.4451 257° West  Level Estimated
04:19PM 55.7739 -34.6296 257° West  Level Estimated
04:20PM 55.7487 -34.8139 256° West  Level Estimated
04:21PM 55.7232 -34.9979 256° West  Level Estimated
04:22PM 55.6974 -35.1817 256° West  Level Estimated
04:23PM 55.6714 -35.3652 256° West  Level Estimated
04:24PM 55.6451 -35.5485 256° West  Level Estimated
04:25PM 55.6185 -35.7316 256° West  Level Estimated
04:26PM 55.5916 -35.9144 255° West  Level Estimated
04:27PM 55.5645 -36.0970 255° West  Level Estimated
04:28PM 55.5371 -36.2792 255° West  Level Estimated
04:29PM 55.5094 -36.4613 255° West  Level Estimated
04:30PM 55.4814 -36.6431 255° West  Level Estimated
04:31PM 55.4532 -36.8246 255° West  Level Estimated
04:32PM 55.4248 -37.0058 255° West  Level Estimated
04:33PM 55.3960 -37.1868 254° West  Level Estimated
04:34PM 55.3670 -37.3676 254° West  Level Estimated
04:35PM 55.3377 -37.5480 254° West  Level Estimated
04:36PM 55.3082 -37.7282 254° West  Level Estimated
04:37PM 55.2783 -37.9082 254° West  Level Estimated
04:38PM 55.2483 -38.0878 254° West  Level Estimated
04:39PM 55.2179 -38.2672 254° West  Level Estimated
04:40PM 55.1873 -38.4463 253° West  Level Estimated
04:41PM 55.1564 -38.6252 253° West  Level Estimated
04:42PM 55.1253 -38.8037 253° West  Level Estimated
04:43PM 55.0939 -38.9820 253° West  Level Estimated
04:44PM 55.0623 -39.1600 253° West  Level Estimated
04:45PM 55.0304 -39.3377 253° West  Level Estimated
04:46PM 54.9982 -39.5152 253° West  Level Estimated
04:47PM 54.9658 -39.6923 252° West  Level Estimated
04:48PM 54.9331 -39.8692 252° West  Level Estimated
04:49PM 54.9002 -40.0457 252° West  Level Estimated
04:50PM 54.8670 -40.2220 252° West  Level Estimated
04:51PM 54.8335 -40.3980 252° West  Level Estimated
04:52PM 54.7998 -40.5737 252° West  Level Estimated
04:53PM 54.7659 -40.7491 252° West  Level Estimated
04:54PM 54.7316 -40.9242 251° West  Level Estimated
04:55PM 54.6972 -41.0990 251° West  Level Estimated
04:56PM 54.6625 -41.2735 251° West  Level Estimated
04:57PM 54.6275 -41.4478 251° West  Level Estimated
04:58PM 54.5923 -41.6217 251° West  Level Estimated
04:59PM 54.5568 -41.7953 251° West  Level Estimated
05:00PM 54.5211 -41.9686 251° West  Level Estimated
05:01PM 54.4852 -42.1416 250° West  Level Estimated
05:02PM 54.4490 -42.3143 250° West  Level Estimated
05:03PM 54.4125 -42.4867 250° West  Level Estimated
05:04PM 54.3758 -42.6588 250° West  Level Estimated
05:05PM 54.3389 -42.8306 250° West  Level Estimated
05:06PM 54.3017 -43.0021 250° West  Level Estimated
05:07PM 54.2643 -43.1732 250° West  Level Estimated
05:08PM 54.2266 -43.3441 249° West  Level Estimated
05:09PM 54.1887 -43.5146 249° West  Level Estimated
05:10PM 54.1506 -43.6848 249° West  Level Estimated
05:11PM 54.1122 -43.8547 249° West  Level Estimated
05:12PM 54.0735 -44.0243 249° West  Level Estimated
05:13PM 54.0347 -44.1936 249° West  Level Estimated
05:14PM 53.9956 -44.3626 249° West  Level Estimated
05:15PM 53.9562 -44.5312 248° West  Level Estimated
05:16PM 53.9167 -44.6995 248° West  Level Estimated
05:17PM 53.8769 -44.8675 248° West  Level Estimated
05:18PM 53.8368 -45.0352 248° West  Level Estimated
05:19PM 53.7965 -45.2026 248° West  Level Estimated
05:20PM 53.7560 -45.3696 248° West  Level Estimated
05:21PM 53.7153 -45.5363 248° West  Level Estimated
05:22PM 53.6743 -45.7027 247° West  Level Estimated
05:23PM 53.6331 -45.8688 247° West  Level Estimated
05:24PM 53.5917 -46.0345 247° West  Level Estimated
05:25PM 53.5500 -46.2000 247° West  Level Estimated
05:26PM 53.5081 -46.3650 247° West  Level Estimated
05:27PM 53.4660 -46.5298 247° West  Level Estimated
05:28PM 53.4237 -46.6942 247° West  Level Estimated
05:29PM 53.3811 -46.8584 247° West  Level Estimated
05:30PM 53.3383 -47.0221 246° West  Level Estimated
05:31PM 53.2953 -47.1856 246° West  Level Estimated
05:32PM 53.2521 -47.3487 246° West  Level Estimated
05:33PM 53.2086 -47.5115 246° West  Level Estimated
05:34PM 53.1649 -47.6740 246° West  Level Estimated
05:35PM 53.1210 -47.8361 246° West  Level Estimated
05:36PM 53.0769 -47.9979 246° West  Level Estimated
05:37PM 53.0326 -48.1594 246° West  Level Estimated
05:38PM 52.9880 -48.3205 245° Southwest  Level Estimated
05:39PM 52.9432 -48.4813 245° Southwest  Level Estimated
05:40PM 52.8983 -48.6418 245° Southwest  Level Estimated
05:41PM 52.8530 -48.8019 245° Southwest  Level Estimated
05:42PM 52.8076 -48.9617 245° Southwest  Level Estimated
05:43PM 52.7620 -49.1212 245° Southwest  Level Estimated
05:44PM 52.7161 -49.2803 245° Southwest  Level Estimated
05:45PM 52.6701 -49.4391 244° Southwest  Level Estimated
05:46PM 52.6238 -49.5975 244° Southwest  Level Estimated
05:47PM 52.5773 -49.7557 244° Southwest  Level Estimated
05:48PM 52.5306 -49.9135 244° Southwest  Level Estimated
05:49PM 52.4837 -50.0709 244° Southwest  Level Estimated
05:50PM 52.4366 -50.2280 244° Southwest  Level Estimated
05:51PM 52.3893 -50.3848 244° Southwest  Level Estimated
05:52PM 52.3418 -50.5413 244° Southwest  Level Estimated
05:53PM 52.2940 -50.6974 243° Southwest  Level Estimated
05:54PM 52.2461 -50.8531 243° Southwest  Level Estimated
05:55PM 52.1979 -51.0086 243° Southwest  Level Estimated
05:56PM 52.1496 -51.1637 243° Southwest  Level Estimated
05:57PM 52.1010 -51.3184 243° Southwest  Level Estimated
05:58PM 52.0523 -51.4729 243° Southwest  Level Estimated
05:59PM 52.0033 -51.6269 243° Southwest  Level Estimated
06:00PM 51.9542 -51.7807 243° Southwest  Level Estimated
06:01PM 51.9048 -51.9341 243° Southwest  Level Estimated
06:02PM 51.8553 -52.0872 242° Southwest  Level Estimated
06:03PM 51.8055 -52.2399 242° Southwest  Level Estimated
06:04PM 51.7556 -52.3923 242° Southwest  Level Estimated
06:05PM 51.7054 -52.5444 242° Southwest  Level Estimated
06:06PM 51.6551 -52.6961 242° Southwest  Level Estimated
06:07PM 51.6045 -52.8475 242° Southwest  Level Estimated
06:08PM 51.5538 -52.9985 242° Southwest  Level Estimated
06:09PM 51.5029 -53.1493 242° Southwest  Level Estimated
06:10PM 51.4518 -53.2996 241° Southwest  Level Estimated
06:11PM 51.4005 -53.4497 241° Southwest  Level Estimated
06:12PM 51.3490 -53.5994 241° Southwest  Level Estimated
06:13PM 51.2973 -53.7487 241° Southwest  Level Estimated
06:14PM 51.2454 -53.8978 241° Southwest  Level Estimated
06:15PM 51.1933 -54.0464 241° Southwest  Level Estimated
06:16PM 51.1411 -54.1948 241° Southwest  Level Estimated
06:17PM 51.0886 -54.3428 241° Southwest  Level Estimated
06:18PM 51.0360 -54.4905 241° Southwest  Level Estimated
06:19PM 50.9832 -54.6379 240° Southwest  Level Estimated
06:20PM 50.9302 -54.7849 240° Southwest  Level Estimated
06:21PM 50.8770 -54.9315 240° Southwest  Level Estimated
06:22PM 50.8236 -55.0779 240° Southwest  Level Estimated
06:23PM 50.7701 -55.2239 240° Southwest  Level Estimated
06:24PM 50.7163 -55.3696 240° Southwest  Level Estimated
06:25PM 50.6624 -55.5149 240° Southwest  Level Estimated
06:26PM 50.6083 -55.6599 240° Southwest  Level Estimated
06:27PM 50.5541 -55.8046 239° Southwest  Level Estimated
06:28PM 50.4996 -55.9489 239° Southwest  Level Estimated
06:29PM 50.4450 -56.0929 239° Southwest  Level Estimated
06:30PM 50.3902 -56.2366 239° Southwest  Level Estimated
06:31PM 50.3352 -56.3799 239° Southwest  Level Estimated
06:32PM 50.2800 -56.5229 239° Southwest  Level Estimated
06:33PM 50.2247 -56.6656 239° Southwest  Level Estimated
06:34PM 50.1692 -56.8079 239° Southwest  Level Estimated
06:35PM 50.1135 -56.9500 239° Southwest  Level Estimated
06:36PM 50.0576 -57.0916 238° Southwest  Level Estimated
06:37PM 50.0016 -57.2330 238° Southwest  Level Estimated
06:38PM 49.9454 -57.3740 238° Southwest  Level Estimated
06:39PM 49.8890 -57.5147 238° Southwest  Level Estimated
06:40PM 49.8325 -57.6551 238° Southwest  Level Estimated
06:41PM 49.7758 -57.7951 238° Southwest  Level Estimated
06:42PM 49.7189 -57.9348 238° Southwest  Level Estimated
06:43PM 49.6618 -58.0742 238° Southwest  Level Estimated
06:44PM 49.6046 -58.2133 238° Southwest  Level Estimated
06:45PM 49.5472 -58.3520 238° Southwest  Level Estimated
06:46PM 49.4897 -58.4904 237° Southwest  Level Estimated
06:47PM 49.4320 -58.6285 237° Southwest  Level Estimated
06:48PM 49.3741 -58.7662 237° Southwest  Level Estimated
06:49PM 49.3161 -58.9036 237° Southwest  Level Estimated
06:50PM 49.2579 -59.0407 237° Southwest  Level Estimated
06:51PM 49.1995 -59.1775 237° Southwest  Level Estimated
06:52PM 49.1410 -59.3140 237° Southwest  Level Estimated
06:53PM 49.0823 -59.4501 237° Southwest  Level Estimated
06:54PM 49.0235 -59.5859 237° Southwest  Level Estimated
06:55PM 48.9645 -59.7214 236° Southwest  Level Estimated
06:56PM 48.9053 -59.8566 236° Southwest  Level Estimated
06:57PM 48.8460 -59.9915 236° Southwest  Level Estimated
06:58PM 48.7865 -60.1260 236° Southwest  Level Estimated
06:59PM 48.7269 -60.2602 236° Southwest  Level Estimated
07:00PM 48.6671 -60.3941 236° Southwest  Level Estimated
07:01PM 48.6072 -60.5277 236° Southwest  Level Estimated
07:02PM 48.5471 -60.6609 236° Southwest  Level Estimated
07:03PM 48.4868 -60.7939 236° Southwest  Level Estimated
07:04PM 48.4264 -60.9265 236° Southwest  Level Estimated
07:05PM 48.3659 -61.0588 235° Southwest  Level Estimated
07:06PM 48.3052 -61.1908 235° Southwest  Level Estimated
07:07PM 48.2443 -61.3225 235° Southwest  Level Estimated
07:08PM 48.1833 -61.4539 235° Southwest  Level Estimated
07:09PM 48.1222 -61.5849 235° Southwest  Level Estimated
07:10PM 48.0609 -61.7157 235° Southwest  Level Estimated
07:11PM 47.9994 -61.8461 235° Southwest  Level Estimated
07:12PM 47.9378 -61.9762 235° Southwest  Level Estimated
07:13PM 47.8761 -62.1060 235° Southwest  Level Estimated
07:14PM 47.8142 -62.2355 235° Southwest  Level Estimated
07:15PM 47.7522 -62.3647 234° Southwest  Level Estimated
07:16PM 47.6900 -62.4936 234° Southwest  Level Estimated
07:17PM 47.6277 -62.6222 234° Southwest  Level Estimated
07:18PM 47.5652 -62.7505 234° Southwest  Level Estimated
07:19PM 47.5026 -62.8784 234° Southwest  Level Estimated
07:20PM 47.4398 -63.0061 234° Southwest  Level Estimated
07:21PM 47.3769 -63.1335 234° Southwest  Level Estimated
07:22PM 47.3139 -63.2605 234° Southwest  Level Estimated
07:23PM 47.2508 -63.3873 234° Southwest  Level Estimated
07:24PM 47.1874 -63.5137 234° Southwest  Level Estimated
07:25PM 47.1240 -63.6399 234° Southwest  Level Estimated
07:26PM 47.0604 -63.7657 233° Southwest  Level Estimated
07:27PM 46.9967 -63.8913 233° Southwest  Level Estimated
07:28PM 46.9328 -64.0165 233° Southwest  Level Estimated
07:29PM 46.8688 -64.1415 233° Southwest  Level Estimated
07:30PM 46.8047 -64.2661 233° Southwest  Level Estimated
07:31PM 46.7404 -64.3905 233° Southwest  Level Estimated
07:32PM 46.6760 -64.5145 233° Southwest  Level Estimated
07:33PM 46.6114 -64.6383 233° Southwest  Level Estimated
07:34PM 46.5468 -64.7617 233° Southwest  Level Estimated
07:35PM 46.4820 -64.8849 233° Southwest  Level Estimated
07:36PM 46.4170 -65.0078 233° Southwest  Level Estimated
07:37PM 46.3520 -65.1304 232° Southwest  Level Estimated
07:38PM 46.2868 -65.2527 232° Southwest  Level Estimated
07:39PM 46.2214 -65.3747 232° Southwest  Level Estimated
07:40PM 46.1560 -65.4964 232° Southwest  Level Estimated
07:41PM 46.0904 -65.6178 232° Southwest  Level Estimated
07:42PM 46.0247 -65.7389 232° Southwest  Level Estimated
07:43PM 45.9588 -65.8598 232° Southwest  Level Estimated
07:44PM 45.8928 -65.9803 232° Southwest  Level Estimated
07:45PM 45.8267 -66.1006 232° Southwest  Level Estimated
07:46PM 45.7605 -66.2206 232° Southwest  Level Estimated
07:47PM 45.6942 -66.3403 232° Southwest  Level Estimated
07:48PM 45.6277 -66.4597 232° Southwest  Level Estimated
07:49PM 45.5611 -66.5789 231° Southwest  Level Estimated
07:50PM 45.4944 -66.6977 231° Southwest  Level Estimated
07:51PM 45.4275 -66.8163 231° Southwest  Level Estimated
07:52PM 45.3606 -66.9346 231° Southwest  Level Estimated
07:53PM 45.2935 -67.0526 231° Southwest  Level Estimated
07:54PM 45.2263 -67.1703 231° Southwest  Level Estimated
07:55PM 45.1589 -67.2878 231° Southwest  Level Estimated
07:56PM 45.0915 -67.4050 231° Southwest  Level Estimated
07:57PM 45.0239 -67.5219 231° Southwest  Level Estimated
07:58PM 44.9562 -67.6385 231° Southwest  Level Estimated
07:59PM 44.8884 -67.7548 231° Southwest  Level Estimated
08:00PM 44.8205 -67.8709 231° Southwest  Level Estimated
08:01PM 44.7524 -67.9867 230° Southwest  Level Estimated
08:02PM 44.6843 -68.1022 230° Southwest  Level Estimated
08:03PM 44.6160 -68.2175 230° Southwest  Level Estimated
08:04PM 44.5476 -68.3325 230° Southwest  Level Estimated
08:05PM 44.4791 -68.4472 230° Southwest  Level Estimated
08:06PM 44.4105 -68.5616 230° Southwest  Level Estimated
08:07PM 44.3418 -68.6758 230° Southwest  Level Estimated
08:08PM 44.2729 -68.7897 230° Southwest  Level Estimated
08:09PM 44.2039 -68.9034 230° Southwest  Level Estimated
08:10PM 44.1349 -69.0167 230° Southwest  Level Estimated
08:11PM 44.0657 -69.1298 230° Southwest  Level Estimated
08:12PM 43.9964 -69.2427 230° Southwest  Level Estimated
08:13PM 43.9270 -69.3553 229° Southwest  Level Estimated
08:14PM 43.8574 -69.4676 229° Southwest  Level Estimated
08:15PM 43.7878 -69.5797 229° Southwest  Level Estimated
08:16PM 43.7181 -69.6915 229° Southwest  Level Estimated
08:17PM 43.6482 -69.8030 229° Southwest  Level Estimated
08:18PM 43.5783 -69.9143 229° Southwest  Level Estimated
08:19PM 43.5082 -70.0253 229° Southwest  Level Estimated
08:20PM 43.4380 -70.1360 229° Southwest  Level Estimated
08:21PM 43.3678 -70.2466 229° Southwest  Level Estimated
08:22PM 43.2974 -70.3568 229° Southwest  Level Estimated
08:23PM 43.2269 -70.4668 229° Southwest  Level Estimated
08:24PM 43.1563 -70.5766 229° Southwest  Level Estimated
08:25PM 43.0856 -70.6860 229° Southwest  Level Estimated
08:26PM 43.0148 -70.7953 228° Southwest  Level Estimated
08:27PM 42.9439 -70.9043 228° Southwest  Level Estimated
08:28PM 42.8729 -71.0130 228° Southwest  Level Estimated
08:29PM 42.8018 -71.1215 228° Southwest  Level Estimated
08:30PM 42.7306 -71.2297 228° Southwest  Level Estimated
08:31PM 42.6593 -71.3377 228° Southwest  Level Estimated
08:32PM 42.5878 -71.4454 228° Southwest  Level Estimated
08:33PM 42.5163 -71.5529 228° Southwest  Level Estimated
08:34PM 42.4447 -71.6601 228° Southwest  Level Estimated
08:35PM 42.3730 -71.7671 228° Southwest  Level Estimated
08:36PM 42.3012 -71.8739 228° Southwest  Level Estimated
08:37PM 42.2293 -71.9804 228° Southwest  Level Estimated
08:38PM 42.1572 -72.0867 228° Southwest  Level Estimated
08:39PM 42.0851 -72.1927 228° Southwest  Level Estimated
08:40PM 42.0129 -72.2985 227° Southwest  Level Estimated
08:41PM 41.9406 -72.4041 227° Southwest  Level Estimated
08:42PM 41.8682 -72.5094 227° Southwest  Level Estimated
08:43PM 41.7957 -72.6144 227° Southwest  Level Estimated
08:44PM 41.7231 -72.7193 227° Southwest  Level Estimated
08:45PM 41.6505 -72.8239 227° Southwest  Level Estimated
08:46PM 41.5777 -72.9282 227° Southwest  Level Estimated
08:47PM 41.5048 -73.0323 227° Southwest  Level Estimated
08:48PM 41.4318 -73.1362 227° Southwest  Level Estimated
08:49PM 41.3588 -73.2399 227° Southwest  Level Estimated
08:50PM 41.2856 -73.3433 227° Southwest  Level Estimated
08:51PM 41.2123 -73.4465 227° Southwest  Level Estimated
08:52PM 41.1390 -73.5495 227° Southwest  Level Estimated
08:53PM 41.0656 -73.6522 227° Southwest  Level Estimated
08:54PM 40.9921 -73.7547 226° Southwest  Level Estimated
08:55PM 40.9184 -73.8569 226° Southwest  Level Estimated
08:56PM 40.8447 -73.9590 226° Southwest  Level Estimated
08:57PM 40.7710 -74.0608 226° Southwest  Level Estimated
08:58PM 40.6971 -74.1624 226° Southwest  Level Estimated
08:59PM 40.6925 -74.1687 226° Southwest  Level Estimated
09:00PM 40.6925 -74.1687 90° East  Level Estimated
09:01PM 40.6925 -74.1687 90° East  Level Estimated
09:02PM 40.6925 -74.1687 90° East  Level Estimated
09:03PM 40.6925 -74.1687 90° East  Level Estimated
09:04PM 40.6925 -74.1687 90° East  Level Estimated
09:05PM 40.6925 -74.1687 90° East  Level Estimated
09:06PM 40.6925 -74.1687 90° East  Level Estimated
09:07PM 40.6925 -74.1687 90° East  Level Estimated
09:08PM 40.6925 -74.1687 90° East  Level Estimated
09:09PM 40.6925 -74.1687 90° East  Level Estimated
09:10PM 40.6925 -74.1687 90° East  Level Estimated
09:11PM 40.6925 -74.1687 90° East  Level Estimated
09:12PM 40.6925 -74.1687 90° East  Level Estimated
09:13PM 40.6925 -74.1687 90° East  Level Estimated
09:14PM 40.6925 -74.1687 90° East  Level Estimated